Time,TemperatureF,DewpointF,PressureIn,WindDirection,WindDirectionDegrees,WindSpeedMPH,WindSpeedGustMPH,Humidity,HourlyPrecipIn,Conditions,Clouds,dailyrainin,SoftwareType,DateUTC
2013-02-21 00:57:00,17.4,9.6,29.55,SE,135,0.0,0.0,71,0.00,,,0.00,WUHU21623XXSP,2013-02-21 06:57:00,
2013-02-21 01:57:00,16.3,8.6,29.56,ENE,68,0.0,0.0,71,0.00,,,0.00,WUHU21623XXSP,2013-02-21 07:57:00,
2013-02-21 02:57:00,15.1,7.7,29.57,ENE,68,0.0,0.0,72,0.00,,,0.00,WUHU21623XXSP,2013-02-21 08:57:00,
2013-02-21 03:57:00,14.5,7.5,29.52,NE,45,0.0,0.0,73,0.00,,,0.00,WUHU21623XXSP,2013-02-21 09:57:00,
2013-02-21 04:57:00,14.2,7.2,29.50,NE,45,2.0,2.0,73,0.00,,,0.00,WUHU21623XXSP,2013-02-21 10:57:00,
2013-02-21 06:03:00,14.4,7.4,29.54,NE,45,0.0,0.0,73,0.00,,,0.00,WUHU21623XXSP,2013-02-21 12:03:00,
2013-02-21 06:08:00,14.4,7.3,29.53,NE,45,3.1,3.1,73,0.00,,,0.00,WUHU21623XXSP,2013-02-21 12:08:00,
2013-02-21 06:13:00,14.4,7.3,29.52,NE,45,0.0,5.1,73,0.00,,,0.00,WUHU21623XXSP,2013-02-21 12:13:00,
2013-02-21 06:18:00,14.4,7.3,29.51,NE,45,6.5,6.5,73,0.00,,,0.00,WUHU21623XXSP,2013-02-21 12:18:00,
2013-02-21 06:23:00,14.4,7.3,29.51,NE,45,5.6,6.5,73,0.00,,,0.00,WUHU21623XXSP,2013-02-21 12:23:00,
2013-02-21 06:28:00,14.2,7.1,29.51,NE,45,4.5,5.6,73,0.00,,,0.00,WUHU21623XXSP,2013-02-21 12:28:00,
2013-02-21 06:33:00,14.2,7.1,29.50,NE,45,2.7,5.6,73,0.00,,,0.00,WUHU21623XXSP,2013-02-21 12:33:00,
2013-02-21 06:38:00,14.2,7.4,29.49,NE,45,8.3,8.3,74,0.00,,,0.00,WUHU21623XXSP,2013-02-21 12:38:00,
2013-02-21 06:43:00,14.2,7.4,29.50,NE,45,0.0,8.3,74,0.00,,,0.00,WUHU21623XXSP,2013-02-21 12:43:00,
2013-02-21 06:48:00,14.2,7.4,29.50,NE,45,2.7,7.2,74,0.00,,,0.00,WUHU21623XXSP,2013-02-21 12:48:00,
2013-02-21 06:53:00,14.2,7.4,29.51,SE,135,0.0,2.7,74,0.00,,,0.00,WUHU21623XXSP,2013-02-21 12:53:00,
2013-02-21 06:58:00,14.2,7.4,29.51,NE,45,2.7,2.7,74,0.00,,,0.00,WUHU21623XXSP,2013-02-21 12:58:00,
2013-02-21 07:03:00,14.4,7.6,29.51,NE,45,0.0,5.8,74,0.00,,,0.00,WUHU21623XXSP,2013-02-21 13:03:00,
2013-02-21 07:08:00,14.5,7.7,29.52,ESE,112,0.0,5.8,74,0.00,,,0.00,WUHU21623XXSP,2013-02-21 13:08:00,
2013-02-21 07:13:00,14.7,7.9,29.53,SE,135,3.1,3.1,74,0.00,,,0.00,WUHU21623XXSP,2013-02-21 13:13:00,
2013-02-21 07:18:00,14.9,8.1,29.53,SSE,157,1.6,3.1,74,0.00,,,0.00,WUHU21623XXSP,2013-02-21 13:18:00,
2013-02-21 07:23:00,15.3,8.4,29.53,ENE,67,0.0,4.3,74,0.00,,,0.00,WUHU21623XXSP,2013-02-21 13:23:00,
2013-02-21 07:28:00,15.6,8.7,29.54,ESE,112,0.0,4.3,74,0.00,,,0.00,WUHU21623XXSP,2013-02-21 13:28:00,
2013-02-21 07:33:00,15.6,8.7,29.55,SE,135,2.5,4.9,74,0.00,,,0.00,WUHU21623XXSP,2013-02-21 13:33:00,
2013-02-21 07:38:00,16.0,9.1,29.55,SE,135,0.0,4.9,74,0.00,,,0.00,WUHU21623XXSP,2013-02-21 13:38:00,
2013-02-21 07:43:00,16.3,9.4,29.55,SE,135,0.0,0.0,74,0.00,,,0.00,WUHU21623XXSP,2013-02-21 13:43:00,
2013-02-21 07:48:00,16.3,9.4,29.56,SE,135,4.5,4.5,74,0.00,,,0.00,WUHU21623XXSP,2013-02-21 13:48:00,
2013-02-21 07:53:00,16.5,9.6,29.54,ESE,112,0.0,4.7,74,0.00,,,0.00,WUHU21623XXSP,2013-02-21 13:53:00,
2013-02-21 07:58:00,16.9,9.7,29.55,ESE,112,2.2,4.7,73,0.00,,,0.00,WUHU21623XXSP,2013-02-21 13:58:00,
2013-02-21 08:03:00,16.9,9.7,29.53,NE,45,0.0,2.2,73,0.00,,,0.00,WUHU21623XXSP,2013-02-21 14:03:00,
2013-02-21 08:08:00,17.2,10.0,29.54,ESE,112,0.0,2.7,73,0.00,,,0.00,WUHU21623XXSP,2013-02-21 14:08:00,
2013-02-21 08:13:00,17.2,10.0,29.51,NE,45,6.7,6.7,73,0.00,,,0.00,WUHU21623XXSP,2013-02-21 14:13:00,
2013-02-21 08:18:00,17.4,10.2,29.51,ENE,67,0.0,6.7,73,0.00,,,0.00,WUHU21623XXSP,2013-02-21 14:18:00,
2013-02-21 08:23:00,17.8,10.5,29.51,NE,45,1.6,3.6,73,0.00,,,0.00,WUHU21623XXSP,2013-02-21 14:23:00,
2013-02-21 08:28:00,18.0,10.7,29.51,ENE,67,0.7,5.8,73,0.00,,,0.00,WUHU21623XXSP,2013-02-21 14:28:00,
2013-02-21 08:33:00,18.1,10.8,29.51,ENE,67,5.1,5.8,73,0.00,,,0.00,WUHU21623XXSP,2013-02-21 14:33:00,
2013-02-21 08:38:00,18.7,11.4,29.53,ENE,67,0.0,5.1,73,0.00,,,0.00,WUHU21623XXSP,2013-02-21 14:38:00,
2013-02-21 08:43:00,19.0,11.5,29.53,SE,135,0.0,4.0,73,0.00,,,0.00,WUHU21623XXSP,2013-02-21 14:43:00,
2013-02-21 08:48:00,19.2,11.9,29.54,ENE,67,0.0,0.0,72,0.00,,,0.00,WUHU21623XXSP,2013-02-21 14:48:00,
2013-02-21 08:53:00,19.6,11.9,29.54,NE,45,0.0,6.5,72,0.00,,,0.00,WUHU21623XXSP,2013-02-21 14:53:00,
2013-02-21 08:58:00,19.6,11.9,29.53,NE,45,0.0,6.5,72,0.00,,,0.00,WUHU21623XXSP,2013-02-21 14:58:00,
2013-02-21 09:03:00,19.9,12.1,29.52,NE,45,3.8,4.3,72,0.00,,,0.00,WUHU21623XXSP,2013-02-21 15:03:00,
2013-02-21 09:08:00,20.1,12.3,29.51,ESE,112,0.0,3.8,72,0.00,,,0.00,WUHU21623XXSP,2013-02-21 15:08:00,
2013-02-21 09:13:00,20.5,12.8,29.51,ESE,112,0.0,0.0,72,0.00,,,0.00,WUHU21623XXSP,2013-02-21 15:13:00,
2013-02-21 09:18:00,20.8,13.2,29.51,ESE,112,6.0,6.0,72,0.00,,,0.00,WUHU21623XXSP,2013-02-21 15:18:00,
2013-02-21 09:23:00,21.0,13.4,29.51,SE,135,0.0,6.0,72,0.00,,,0.00,WUHU21623XXSP,2013-02-21 15:23:00,
2013-02-21 09:28:00,21.4,13.7,29.52,ESE,112,5.1,5.1,72,0.00,,,0.00,WUHU21623XXSP,2013-02-21 15:28:00,
2013-02-21 09:33:00,21.6,13.9,29.52,ESE,112,1.3,5.1,72,0.00,,,0.00,WUHU21623XXSP,2013-02-21 15:33:00,
2013-02-21 09:38:00,21.9,13.9,29.52,NE,45,3.4,8.5,71,0.00,,,0.00,WUHU21623XXSP,2013-02-21 15:38:00,
2013-02-21 09:43:00,22.1,14.1,29.53,ENE,67,0.0,8.5,71,0.00,,,0.00,WUHU21623XXSP,2013-02-21 15:43:00,
2013-02-21 09:48:00,22.3,14.3,29.53,ESE,112,0.0,2.7,71,0.00,,,0.00,WUHU21623XXSP,2013-02-21 15:48:00,
2013-02-21 09:53:00,22.8,14.8,29.53,SE,135,0.0,1.6,71,0.00,,,0.00,WUHU21623XXSP,2013-02-21 15:53:00,
2013-02-21 09:58:00,22.8,14.8,29.53,SE,135,0.0,0.0,71,0.00,,,0.00,WUHU21623XXSP,2013-02-21 15:58:00,
2013-02-21 10:03:00,23.4,15.3,29.52,SE,135,0.0,0.0,71,0.00,,,0.00,WUHU21623XXSP,2013-02-21 16:03:00,
2013-02-21 10:08:00,23.7,15.5,29.51,NE,45,0.0,0.0,71,0.00,,,0.00,WUHU21623XXSP,2013-02-21 16:08:00,
2013-02-21 10:13:00,23.9,15.8,29.49,NE,45,0.0,2.0,71,0.00,,,0.00,WUHU21623XXSP,2013-02-21 16:13:00,
2013-02-21 10:18:00,24.1,15.7,29.49,NE,45,3.4,5.4,70,0.00,,,0.00,WUHU21623XXSP,2013-02-21 16:18:00,
2013-02-21 10:23:00,24.4,15.7,29.49,NE,45,2.5,5.4,70,0.00,,,0.00,WUHU21623XXSP,2013-02-21 16:23:00,
2013-02-21 10:28:00,24.4,16.0,29.49,NE,45,0.0,2.5,70,0.00,,,0.00,WUHU21623XXSP,2013-02-21 16:28:00,
2013-02-21 10:33:00,24.6,16.2,29.49,East,90,0.0,2.5,70,0.00,,,0.00,WUHU21623XXSP,2013-02-21 16:33:00,
2013-02-21 10:38:00,25.0,16.2,29.49,NE,45,0.0,0.0,70,0.00,,,0.00,WUHU21623XXSP,2013-02-21 16:38:00,
2013-02-21 10:43:00,25.2,16.5,29.48,NE,45,2.2,2.2,70,0.00,,,0.00,WUHU21623XXSP,2013-02-21 16:43:00,
2013-02-21 10:48:00,25.2,16.7,29.48,NE,45,2.5,4.5,70,0.00,,,0.00,WUHU21623XXSP,2013-02-21 16:48:00,
2013-02-21 10:53:00,25.2,16.7,29.47,NE,45,0.0,4.5,70,0.00,,,0.00,WUHU21623XXSP,2013-02-21 16:53:00,
2013-02-21 10:58:00,25.2,16.7,29.47,NE,45,0.9,3.4,70,0.00,,,0.00,WUHU21623XXSP,2013-02-21 16:58:00,
2013-02-21 11:03:00,25.3,16.9,29.46,ENE,67,2.9,7.4,70,0.00,,,0.00,WUHU21623XXSP,2013-02-21 17:03:00,
2013-02-21 11:08:00,25.5,17.1,29.46,ESE,112,0.7,7.4,70,0.00,,,0.00,WUHU21623XXSP,2013-02-21 17:08:00,
2013-02-21 11:13:00,25.7,17.2,29.46,ESE,112,2.2,2.9,70,0.00,,,0.00,WUHU21623XXSP,2013-02-21 17:13:00,
2013-02-21 11:18:00,26.2,17.8,29.45,ENE,67,0.0,2.2,70,0.00,,,0.00,WUHU21623XXSP,2013-02-21 17:18:00,
2013-02-21 11:23:00,26.8,18.0,29.46,NE,45,6.7,6.7,69,0.00,,,0.00,WUHU21623XXSP,2013-02-21 17:23:00,
2013-02-21 11:28:00,27.0,18.1,29.45,NE,45,3.6,6.7,69,0.00,,,0.00,WUHU21623XXSP,2013-02-21 17:28:00,
2013-02-21 11:33:00,26.8,17.6,29.45,NE,45,6.0,6.0,68,0.00,,,0.00,WUHU21623XXSP,2013-02-21 17:33:00,
2013-02-21 11:38:00,26.6,17.4,29.45,NE,45,2.5,6.9,68,0.00,,,0.00,WUHU21623XXSP,2013-02-21 17:38:00,
2013-02-21 11:43:00,26.6,17.4,29.44,NE,45,2.5,6.9,68,0.00,,,0.00,WUHU21623XXSP,2013-02-21 17:43:00,
2013-02-21 11:48:00,26.6,17.4,29.44,NE,45,6.7,6.7,68,0.00,,,0.00,WUHU21623XXSP,2013-02-21 17:48:00,
2013-02-21 11:53:00,26.6,17.4,29.43,ENE,67,6.0,6.7,68,0.00,,,0.00,WUHU21623XXSP,2013-02-21 17:53:00,
2013-02-21 11:58:00,26.6,17.4,29.43,ENE,67,2.2,6.7,68,0.00,,,0.00,WUHU21623XXSP,2013-02-21 17:58:00,
2013-02-21 12:03:00,26.8,17.4,29.43,East,90,1.1,2.2,68,0.00,,,0.00,WUHU21623XXSP,2013-02-21 18:03:00,
2013-02-21 12:08:00,26.8,17.6,29.43,NE,45,6.5,6.5,68,0.00,,,0.00,WUHU21623XXSP,2013-02-21 18:08:00,
2013-02-21 12:13:00,26.8,17.6,29.43,ENE,67,0.0,6.5,68,0.00,,,0.00,WUHU21623XXSP,2013-02-21 18:13:00,
2013-02-21 12:18:00,26.8,17.6,29.41,NE,45,3.1,3.1,69,0.00,,,0.00,WUHU21623XXSP,2013-02-21 18:18:00,
2013-02-21 12:23:00,27.1,18.3,29.41,NE,45,2.5,3.1,69,0.00,,,0.00,WUHU21623XXSP,2013-02-21 18:23:00,
2013-02-21 12:28:00,27.1,18.3,29.41,NE,45,0.0,2.5,69,0.00,,,0.00,WUHU21623XXSP,2013-02-21 18:28:00,
2013-02-21 12:33:00,27.3,18.3,29.40,SE,135,8.5,8.5,69,0.00,,,0.00,WUHU21623XXSP,2013-02-21 18:33:00,
2013-02-21 12:38:00,27.7,18.9,29.39,NE,45,4.5,8.5,69,0.00,,,0.00,WUHU21623XXSP,2013-02-21 18:38:00,
2013-02-21 12:43:00,27.7,18.9,29.39,East,90,0.7,8.5,69,0.00,,,0.00,WUHU21623XXSP,2013-02-21 18:43:00,
2013-02-21 12:48:00,27.7,18.9,29.39,SE,135,0.0,0.7,69,0.00,,,0.00,WUHU21623XXSP,2013-02-21 18:48:00,
2013-02-21 12:53:00,27.7,18.9,29.39,SE,135,0.0,0.7,69,0.00,,,0.00,WUHU21623XXSP,2013-02-21 18:53:00,
2013-02-21 12:58:00,27.7,18.9,29.40,NE,45,0.0,5.4,69,0.00,,,0.00,WUHU21623XXSP,2013-02-21 18:58:00,
2013-02-21 13:03:00,27.7,19.2,29.41,ESE,112,0.0,5.4,70,0.00,,,0.00,WUHU21623XXSP,2013-02-21 19:03:00,
2013-02-21 13:08:00,27.9,19.4,29.40,ESE,112,9.4,9.4,70,0.00,,,0.00,WUHU21623XXSP,2013-02-21 19:08:00,
2013-02-21 13:13:00,28.0,19.6,29.40,ESE,112,0.0,9.4,70,0.00,,,0.00,WUHU21623XXSP,2013-02-21 19:13:00,
2013-02-21 13:18:00,27.7,19.2,29.41,SE,135,0.0,0.0,70,0.00,,,0.00,WUHU21623XXSP,2013-02-21 19:18:00,
2013-02-21 13:23:00,27.7,19.2,29.40,ENE,67,0.0,0.0,71,0.00,,,0.00,WUHU21623XXSP,2013-02-21 19:23:00,
2013-02-21 13:28:00,27.7,19.5,29.40,ESE,112,0.0,0.0,71,0.00,,,0.00,WUHU21623XXSP,2013-02-21 19:28:00,
2013-02-21 13:33:00,27.7,19.5,29.40,ENE,67,1.6,1.6,71,0.00,,,0.00,WUHU21623XXSP,2013-02-21 19:33:00,
2013-02-21 13:38:00,27.7,19.5,29.39,NE,45,0.0,1.6,71,0.00,,,0.00,WUHU21623XXSP,2013-02-21 19:38:00,
2013-02-21 13:43:00,28.0,20.2,29.39,SE,135,3.4,3.4,72,0.00,,,0.00,WUHU21623XXSP,2013-02-21 19:43:00,
2013-02-21 13:48:00,28.2,20.4,29.38,ESE,112,0.0,3.4,72,0.00,,,0.00,WUHU21623XXSP,2013-02-21 19:48:00,
2013-02-21 13:53:00,28.2,20.4,29.37,East,90,4.0,4.0,72,0.00,,,0.00,WUHU21623XXSP,2013-02-21 19:53:00,
2013-02-21 13:58:00,28.2,20.4,29.37,East,90,4.0,4.0,72,0.00,,,0.00,WUHU21623XXSP,2013-02-21 19:58:00,
2013-02-21 14:03:00,28.6,21.0,29.36,NE,45,0.0,4.0,73,0.00,,,0.00,WUHU21623XXSP,2013-02-21 20:03:00,
2013-02-21 14:08:00,28.6,21.0,29.36,NE,45,1.1,1.1,73,0.00,,,0.00,WUHU21623XXSP,2013-02-21 20:08:00,
2013-02-21 14:13:00,28.8,21.0,29.35,NE,45,1.1,1.1,73,0.00,,,0.00,WUHU21623XXSP,2013-02-21 20:13:00,
2013-02-21 14:18:00,28.8,21.2,29.34,NE,45,6.3,6.3,73,0.00,,,0.00,WUHU21623XXSP,2013-02-21 20:18:00,
2013-02-21 14:23:00,28.8,21.2,29.34,East,90,0.0,6.3,73,0.00,,,0.00,WUHU21623XXSP,2013-02-21 20:23:00,
2013-02-21 14:28:00,28.9,21.3,29.33,ENE,67,0.0,6.3,73,0.00,,,0.00,WUHU21623XXSP,2013-02-21 20:28:00,
2013-02-21 14:33:00,29.1,21.3,29.33,NNE,22,14.3,14.3,73,0.00,,,0.00,WUHU21623XXSP,2013-02-21 20:33:00,
2013-02-21 14:38:00,29.1,21.5,29.34,ESE,112,2.0,14.3,73,0.00,,,0.00,WUHU21623XXSP,2013-02-21 20:38:00,
2013-02-21 14:43:00,29.1,21.5,29.34,ENE,67,6.0,14.3,73,0.00,,,0.00,WUHU21623XXSP,2013-02-21 20:43:00,
2013-02-21 14:48:00,29.1,21.5,29.34,ENE,67,1.6,6.0,73,0.00,,,0.00,WUHU21623XXSP,2013-02-21 20:48:00,
2013-02-21 14:53:00,29.1,21.5,29.34,ENE,67,1.6,5.8,73,0.00,,,0.00,WUHU21623XXSP,2013-02-21 20:53:00,
2013-02-21 14:58:00,28.9,21.5,29.33,SE,135,7.4,7.4,73,0.00,,,0.00,WUHU21623XXSP,2013-02-21 20:58:00,
2013-02-21 15:03:00,28.9,21.3,29.33,East,90,2.9,7.4,73,0.00,,,0.00,WUHU21623XXSP,2013-02-21 21:03:00,
2013-02-21 15:08:00,28.9,21.3,29.33,East,90,2.9,7.4,73,0.00,,,0.00,WUHU21623XXSP,2013-02-21 21:08:00,
2013-02-21 15:13:00,28.9,21.3,29.33,NE,45,5.1,5.1,73,0.00,,,0.00,WUHU21623XXSP,2013-02-21 21:13:00,
2013-02-21 15:18:00,28.9,21.7,29.33,East,90,0.0,5.1,74,0.00,,,0.00,WUHU21623XXSP,2013-02-21 21:18:00,
2013-02-21 15:23:00,29.1,21.8,29.32,NE,45,3.1,3.1,74,0.00,,,0.00,WUHU21623XXSP,2013-02-21 21:23:00,
2013-02-21 15:28:00,28.9,21.7,29.32,ESE,112,6.9,6.9,74,0.00,,,0.00,WUHU21623XXSP,2013-02-21 21:28:00,
2013-02-21 15:33:00,28.9,21.7,29.31,ENE,67,1.3,7.8,74,0.00,,,0.00,WUHU21623XXSP,2013-02-21 21:33:00,
2013-02-21 15:38:00,28.9,21.7,29.30,ESE,112,0.2,7.8,74,0.00,,,0.00,WUHU21623XXSP,2013-02-21 21:38:00,
2013-02-21 15:43:00,28.9,21.7,29.30,ENE,67,0.0,3.1,74,0.00,,,0.00,WUHU21623XXSP,2013-02-21 21:43:00,
2013-02-21 15:48:00,28.8,21.5,29.29,East,90,10.5,10.5,74,0.00,,,0.00,WUHU21623XXSP,2013-02-21 21:48:00,
2013-02-21 15:53:00,28.8,21.5,29.28,ENE,67,0.0,10.5,74,0.00,,,0.00,WUHU21623XXSP,2013-02-21 21:53:00,
2013-02-21 15:58:00,28.8,21.5,29.28,NE,45,1.6,7.8,74,0.00,,,0.00,WUHU21623XXSP,2013-02-21 21:58:00,
2013-02-21 16:03:00,28.8,21.5,29.28,ESE,112,4.3,7.8,74,0.00,,,0.00,WUHU21623XXSP,2013-02-21 22:03:00,
2013-02-21 16:08:00,28.8,21.5,29.29,NE,45,0.0,9.2,74,0.00,,,0.00,WUHU21623XXSP,2013-02-21 22:08:00,
2013-02-21 16:13:00,28.8,21.5,29.28,NE,45,5.6,9.2,74,0.00,,,0.00,WUHU21623XXSP,2013-02-21 22:13:00,
2013-02-21 16:18:00,28.6,21.6,29.29,ENE,67,0.0,6.3,75,0.00,,,0.00,WUHU21623XXSP,2013-02-21 22:18:00,
2013-02-21 16:23:00,28.6,21.6,29.30,ESE,112,3.6,7.8,75,0.00,,,0.00,WUHU21623XXSP,2013-02-21 22:23:00,
2013-02-21 16:28:00,28.6,21.6,29.29,ESE,112,3.1,7.8,75,0.00,,,0.00,WUHU21623XXSP,2013-02-21 22:28:00,
2013-02-21 16:33:00,28.6,21.6,29.29,SE,135,9.4,9.4,75,0.00,,,0.00,WUHU21623XXSP,2013-02-21 22:33:00,
2013-02-21 16:38:00,28.6,21.6,29.28,East,90,0.0,9.6,75,0.00,,,0.00,WUHU21623XXSP,2013-02-21 22:38:00,
2013-02-21 16:43:00,28.2,21.5,29.28,ESE,112,9.8,9.8,75,0.00,,,0.00,WUHU21623XXSP,2013-02-21 22:43:00,
2013-02-21 16:48:00,28.2,21.3,29.27,NE,45,0.0,9.8,75,0.00,,,0.00,WUHU21623XXSP,2013-02-21 22:48:00,
2013-02-21 16:54:00,28.2,21.6,29.26,NE,45,1.8,1.8,76,0.00,,,0.00,WUHU21623XXSP,2013-02-21 22:54:00,
2013-02-21 16:59:00,28.2,21.6,29.26,SE,135,0.0,1.8,76,0.00,,,0.00,WUHU21623XXSP,2013-02-21 22:59:00,
2013-02-21 17:04:00,28.2,21.9,29.25,ENE,67,0.0,0.0,77,0.00,,,0.00,WUHU21623XXSP,2013-02-21 23:04:00,
2013-02-21 17:09:00,28.2,21.9,29.24,SE,135,0.0,0.0,77,0.00,,,0.00,WUHU21623XXSP,2013-02-21 23:09:00,
2013-02-21 17:14:00,28.2,21.9,29.24,NE,45,0.0,6.9,77,0.00,,,0.00,WUHU21623XXSP,2013-02-21 23:14:00,
2013-02-21 17:19:00,28.2,22.2,29.24,ENE,67,0.0,6.9,78,0.00,,,0.00,WUHU21623XXSP,2013-02-21 23:19:00,
2013-02-21 17:24:00,28.0,22.0,29.24,NE,45,0.0,2.9,78,0.00,,,0.00,WUHU21623XXSP,2013-02-21 23:24:00,
2013-02-21 17:29:00,28.0,22.0,29.23,ENE,67,0.0,7.8,78,0.00,,,0.00,WUHU21623XXSP,2013-02-21 23:29:00,
2013-02-21 17:34:00,28.0,22.3,29.23,ESE,112,0.0,7.8,79,0.00,,,0.00,WUHU21623XXSP,2013-02-21 23:34:00,
2013-02-21 17:39:00,28.0,22.3,29.23,ESE,112,0.0,0.0,79,0.00,,,0.00,WUHU21623XXSP,2013-02-21 23:39:00,
2013-02-21 17:44:00,28.0,22.3,29.22,ESE,112,1.1,1.3,79,0.00,,,0.00,WUHU21623XXSP,2013-02-21 23:44:00,
2013-02-21 17:49:00,28.0,22.6,29.20,ENE,67,0.0,1.3,80,0.00,,,0.00,WUHU21623XXSP,2013-02-21 23:49:00,
2013-02-21 17:54:00,28.0,22.6,29.20,ESE,112,8.9,8.9,80,0.00,,,0.00,WUHU21623XXSP,2013-02-21 23:54:00,
2013-02-21 17:59:00,28.0,22.6,29.20,ENE,67,4.9,15.4,80,0.00,,,0.00,WUHU21623XXSP,2013-02-21 23:59:00,
2013-02-21 18:04:00,28.0,22.6,29.19,NE,45,6.5,15.4,80,0.00,,,0.00,WUHU21623XXSP,2013-02-22 00:04:00,
2013-02-21 18:09:00,28.0,22.6,29.19,East,90,2.5,7.4,80,0.00,,,0.00,WUHU21623XXSP,2013-02-22 00:09:00,
2013-02-21 18:14:00,28.0,22.6,29.18,ENE,67,2.7,3.6,80,0.00,,,0.00,WUHU21623XXSP,2013-02-22 00:14:00,
2013-02-21 18:19:00,28.0,22.6,29.18,ENE,67,0.7,4.0,80,0.00,,,0.00,WUHU21623XXSP,2013-02-22 00:19:00,
2013-02-21 18:24:00,28.0,22.6,29.18,East,90,0.0,7.4,80,0.00,,,0.00,WUHU21623XXSP,2013-02-22 00:24:00,
2013-02-21 18:29:00,28.0,22.6,29.18,ENE,67,4.0,7.4,80,0.00,,,0.00,WUHU21623XXSP,2013-02-22 00:29:00,
2013-02-21 18:34:00,28.2,22.8,29.18,SE,135,0.9,6.9,80,0.00,,,0.00,WUHU21623XXSP,2013-02-22 00:34:00,
2013-02-21 18:39:00,28.2,22.8,29.18,NE,45,2.2,2.2,80,0.00,,,0.00,WUHU21623XXSP,2013-02-22 00:39:00,
2013-02-21 18:44:00,28.2,22.8,29.18,NE,45,6.3,6.3,80,0.00,,,0.00,WUHU21623XXSP,2013-02-22 00:44:00,
2013-02-21 18:49:00,28.2,22.8,29.17,NE,45,3.6,6.3,80,0.00,,,0.00,WUHU21623XXSP,2013-02-22 00:49:00,
2013-02-21 18:54:00,28.2,22.8,29.18,NE,45,4.7,4.7,80,0.00,,,0.00,WUHU21623XXSP,2013-02-22 00:54:00,
2013-02-21 18:59:00,28.0,22.6,29.18,NE,45,5.1,5.1,80,0.00,,,0.00,WUHU21623XXSP,2013-02-22 00:59:00,
2013-02-21 19:04:00,28.0,22.6,29.17,ESE,112,17.7,17.7,80,0.00,,,0.00,WUHU21623XXSP,2013-02-22 01:04:00,
2013-02-21 19:09:00,28.0,22.6,29.17,ENE,67,0.0,17.7,80,0.00,,,0.00,WUHU21623XXSP,2013-02-22 01:09:00,
2013-02-21 19:14:00,27.7,22.3,29.16,NE,45,0.9,6.3,80,0.00,,,0.00,WUHU21623XXSP,2013-02-22 01:14:00,
2013-02-21 19:19:00,27.7,22.3,29.16,NE,45,3.4,6.3,80,0.00,,,0.00,WUHU21623XXSP,2013-02-22 01:19:00,
2013-02-21 19:24:00,27.7,22.3,29.16,ENE,67,3.4,3.4,80,0.00,,,0.00,WUHU21623XXSP,2013-02-22 01:24:00,
2013-02-21 19:29:00,27.5,22.1,29.16,ESE,112,1.8,3.4,80,0.00,,,0.00,WUHU21623XXSP,2013-02-22 01:29:00,
2013-02-21 19:34:00,27.5,22.4,29.15,NE,45,3.1,3.1,81,0.00,,,0.00,WUHU21623XXSP,2013-02-22 01:34:00,
2013-02-21 19:39:00,27.3,22.2,29.15,SE,135,8.7,8.7,81,0.00,,,0.00,WUHU21623XXSP,2013-02-22 01:39:00,
2013-02-21 19:44:00,27.1,22.2,29.15,SE,135,4.7,8.7,81,0.00,,,0.00,WUHU21623XXSP,2013-02-22 01:44:00,
2013-02-21 19:49:00,27.1,22.0,29.16,ENE,67,8.5,8.5,81,0.00,,,0.00,WUHU21623XXSP,2013-02-22 01:49:00,
2013-02-21 19:54:00,27.1,22.0,29.15,ESE,112,3.6,9.2,81,0.00,,,0.00,WUHU21623XXSP,2013-02-22 01:54:00,
2013-02-21 19:59:00,27.0,21.8,29.15,ESE,112,2.5,9.2,81,0.00,,,0.00,WUHU21623XXSP,2013-02-22 01:59:00,
2013-02-21 20:04:00,27.0,21.8,29.15,ENE,67,0.0,2.5,81,0.00,,,0.00,WUHU21623XXSP,2013-02-22 02:04:00,
2013-02-21 20:09:00,26.8,21.7,29.15,ENE,67,3.4,3.4,81,0.00,,,0.00,WUHU21623XXSP,2013-02-22 02:09:00,
2013-02-21 20:14:00,26.6,21.8,29.15,East,90,1.3,3.4,82,0.00,,,0.00,WUHU21623XXSP,2013-02-22 02:14:00,
2013-02-21 20:19:00,26.4,21.6,29.15,ENE,67,4.9,4.9,82,0.00,,,0.00,WUHU21623XXSP,2013-02-22 02:19:00,
2013-02-21 20:24:00,26.4,21.6,29.15,NE,45,3.4,6.9,82,0.00,,,0.00,WUHU21623XXSP,2013-02-22 02:24:00,
2013-02-21 20:29:00,26.4,21.3,29.15,NE,45,3.8,6.9,81,0.00,,,0.00,WUHU21623XXSP,2013-02-22 02:29:00,
2013-02-21 20:34:00,26.2,21.1,29.15,NE,45,0.0,5.1,81,0.00,,,0.00,WUHU21623XXSP,2013-02-22 02:34:00,
2013-02-21 20:39:00,26.2,21.1,29.14,ESE,112,0.0,0.0,81,0.00,,,0.00,WUHU21623XXSP,2013-02-22 02:39:00,
2013-02-21 20:44:00,26.1,21.0,29.14,NE,45,4.5,4.5,81,0.00,,,0.00,WUHU21623XXSP,2013-02-22 02:44:00,
2013-02-21 20:49:00,25.9,20.8,29.15,NE,45,6.0,6.0,81,0.00,,,0.00,WUHU21623XXSP,2013-02-22 02:49:00,
2013-02-21 20:54:00,25.9,20.8,29.15,ENE,67,0.0,6.0,81,0.00,,,0.00,WUHU21623XXSP,2013-02-22 02:54:00,
2013-02-21 20:59:00,25.7,20.8,29.15,SE,135,14.1,14.1,82,0.00,,,0.00,WUHU21623XXSP,2013-02-22 02:59:00,
2013-02-21 21:04:00,25.5,20.8,29.15,East,90,4.0,14.1,82,0.00,,,0.00,WUHU21623XXSP,2013-02-22 03:04:00,
2013-02-21 21:09:00,25.5,20.8,29.15,NE,45,0.0,4.0,82,0.00,,,0.00,WUHU21623XXSP,2013-02-22 03:09:00,
2013-02-21 21:14:00,25.3,20.6,29.14,East,90,2.0,6.5,82,0.00,,,0.00,WUHU21623XXSP,2013-02-22 03:14:00,
2013-02-21 21:19:00,25.3,20.6,29.13,NE,45,0.0,6.5,82,0.00,,,0.00,WUHU21623XXSP,2013-02-22 03:19:00,
2013-02-21 21:24:00,25.2,20.4,29.14,ESE,112,2.2,4.5,82,0.00,,,0.00,WUHU21623XXSP,2013-02-22 03:24:00,
2013-02-21 21:29:00,25.2,20.4,29.13,East,90,12.5,12.5,82,0.00,,,0.00,WUHU21623XXSP,2013-02-22 03:29:00,
2013-02-21 21:34:00,25.2,20.4,29.13,ENE,67,2.5,12.5,82,0.00,,,0.00,WUHU21623XXSP,2013-02-22 03:34:00,
2013-02-21 21:39:00,25.0,20.3,29.12,ENE,67,2.9,9.2,82,0.00,,,0.00,WUHU21623XXSP,2013-02-22 03:39:00,
2013-02-21 21:44:00,25.0,20.3,29.12,ESE,112,4.0,8.3,82,0.00,,,0.00,WUHU21623XXSP,2013-02-22 03:44:00,
2013-02-21 21:49:00,25.0,20.3,29.12,ENE,67,3.8,8.3,82,0.00,,,0.00,WUHU21623XXSP,2013-02-22 03:49:00,
2013-02-21 21:54:00,25.0,20.3,29.13,ESE,112,1.8,13.2,82,0.00,,,0.00,WUHU21623XXSP,2013-02-22 03:54:00,
2013-02-21 21:59:00,25.0,20.3,29.12,NE,45,7.4,13.2,82,0.00,,,0.00,WUHU21623XXSP,2013-02-22 03:59:00,
2013-02-21 22:04:00,25.0,20.3,29.12,East,90,0.9,7.4,82,0.00,,,0.00,WUHU21623XXSP,2013-02-22 04:04:00,
2013-02-21 22:09:00,25.0,20.3,29.12,ESE,112,0.0,0.9,82,0.00,,,0.00,WUHU21623XXSP,2013-02-22 04:09:00,
2013-02-21 22:14:00,25.0,20.3,29.12,ESE,112,2.2,3.8,82,0.00,,,0.00,WUHU21623XXSP,2013-02-22 04:14:00,
2013-02-21 22:19:00,25.0,20.3,29.12,ENE,67,6.0,6.5,82,0.00,,,0.00,WUHU21623XXSP,2013-02-22 04:19:00,
2013-02-21 22:24:00,24.8,20.1,29.12,ESE,112,0.0,6.5,82,0.00,,,0.00,WUHU21623XXSP,2013-02-22 04:24:00,
2013-02-21 22:29:00,25.0,20.3,29.12,NE,45,5.8,6.9,82,0.00,,,0.00,WUHU21623XXSP,2013-02-22 04:29:00,
2013-02-21 22:34:00,25.0,20.3,29.12,ESE,112,9.2,9.2,82,0.00,,,0.00,WUHU21623XXSP,2013-02-22 04:34:00,
2013-02-21 22:39:00,25.0,20.6,29.12,ESE,112,0.0,9.2,83,0.00,,,0.00,WUHU21623XXSP,2013-02-22 04:39:00,
2013-02-21 22:44:00,25.0,20.6,29.11,North,0,0.7,6.5,83,0.00,,,0.00,WUHU21623XXSP,2013-02-22 04:44:00,
2013-02-21 22:49:00,25.0,20.6,29.11,ESE,112,4.7,4.7,83,0.00,,,0.00,WUHU21623XXSP,2013-02-22 04:49:00,
2013-02-21 22:54:00,24.8,20.4,29.11,NE,45,6.3,6.3,83,0.00,,,0.00,WUHU21623XXSP,2013-02-22 04:54:00,
2013-02-21 22:59:00,25.0,20.4,29.11,SE,135,0.0,6.3,83,0.00,,,0.00,WUHU21623XXSP,2013-02-22 04:59:00,
2013-02-21 23:00:00,25.0,20.4,29.11,SE,135,0.0,6.3,83,0.00,,,0.00,WUHU21623XXSP,2013-02-22 05:00:00,
2013-02-21 23:05:00,25.0,20.6,29.11,ESE,112,0.0,4.0,83,0.00,,,0.00,WUHU21623XXSP,2013-02-22 05:05:00,
2013-02-21 23:10:00,25.0,20.6,29.10,ESE,112,1.3,4.0,83,0.00,,,0.00,WUHU21623XXSP,2013-02-22 05:10:00,
2013-02-21 23:15:00,25.0,20.6,29.10,SE,135,0.0,2.0,83,0.00,,,0.00,WUHU21623XXSP,2013-02-22 05:15:00,
2013-02-21 23:20:00,25.0,20.6,29.10,NE,45,4.3,6.0,83,0.00,,,0.00,WUHU21623XXSP,2013-02-22 05:20:00,
2013-02-21 23:25:00,25.0,20.6,29.10,NE,45,8.3,8.3,83,0.00,,,0.00,WUHU21623XXSP,2013-02-22 05:25:00,
2013-02-21 23:30:00,25.0,20.6,29.10,SE,135,8.9,8.9,83,0.00,,,0.00,WUHU21623XXSP,2013-02-22 05:30:00,
2013-02-21 23:35:00,25.0,20.6,29.10,SSE,157,5.6,8.9,83,0.00,,,0.00,WUHU21623XXSP,2013-02-22 05:35:00,
2013-02-21 23:40:00,25.0,20.6,29.10,East,90,3.8,5.6,83,0.00,,,0.00,WUHU21623XXSP,2013-02-22 05:40:00,
2013-02-21 23:45:00,25.0,20.6,29.10,ESE,112,0.0,6.3,83,0.00,,,0.00,WUHU21623XXSP,2013-02-22 05:45:00,
2013-02-21 23:50:00,25.0,20.6,29.09,ENE,67,0.0,6.3,83,0.00,,,0.00,WUHU21623XXSP,2013-02-22 05:50:00,
2013-02-21 23:55:00,25.0,20.6,29.09,ESE,112,0.9,2.5,83,0.00,,,0.00,WUHU21623XXSP,2013-02-22 05:55:00,